Terminal Aerodrome Forecast
Issued by NWS

Home | Current Version | Previous Version | Graphics & Text | Print | Product List | Glossary On
Versions: 1 2 3 4 5 6 7 8 9 10 11 12 13 14 15 16 17 18 19 20
000
FTUS41 KCLE 260401 AAA
TAFFDY
TAF AMD
KFDY 260401Z 2604/2624 27012KT P6SM SCT025 OVC040
     FM261300 24008KT P6SM SCT025 OVC100
     FM261800 22015G25KT P6SM BKN070=

USA.gov is the U.S. government's official web portal to all federal, state and local government web resources and services.